sensor_id;sensor_type;location;lat;lon;timestamp;temperature;humidity
42245;DHT22;27912;51.828;5.688;2022-11-15T00:00:28;7.60;99.90
42245;DHT22;27912;51.828;5.688;2022-11-15T00:02:54;7.60;99.90
42245;DHT22;27912;51.828;5.688;2022-11-15T00:05:19;7.60;99.90
42245;DHT22;27912;51.828;5.688;2022-11-15T00:07:45;7.60;99.90
42245;DHT22;27912;51.828;5.688;2022-11-15T00:10:10;7.60;99.90
42245;DHT22;27912;51.828;5.688;2022-11-15T00:12:36;7.60;99.90
42245;DHT22;27912;51.828;5.688;2022-11-15T00:15:02;7.70;99.90
42245;DHT22;27912;51.828;5.688;2022-11-15T00:17:27;7.70;99.90
42245;DHT22;27912;51.828;5.688;2022-11-15T00:19:53;7.70;99.90
42245;DHT22;27912;51.828;5.688;2022-11-15T00:22:19;7.70;99.90
42245;DHT22;27912;51.828;5.688;2022-11-15T00:24:45;7.80;99.90
42245;DHT22;27912;51.828;5.688;2022-11-15T00:27:11;7.70;99.90
42245;DHT22;27912;51.828;5.688;2022-11-15T00:29:36;7.80;99.90
42245;DHT22;27912;51.828;5.688;2022-11-15T00:32:04;7.80;99.90
42245;DHT22;27912;51.828;5.688;2022-11-15T00:34:30;7.80;99.90
42245;DHT22;27912;51.828;5.688;2022-11-15T00:36:55;7.80;99.90
42245;DHT22;27912;51.828;5.688;2022-11-15T00:39:21;7.80;99.90
42245;DHT22;27912;51.828;5.688;2022-11-15T00:41:47;7.80;99.90
42245;DHT22;27912;51.828;5.688;2022-11-15T00:44:12;7.90;99.90
42245;DHT22;27912;51.828;5.688;2022-11-15T00:46:38;7.90;99.90
42245;DHT22;27912;51.828;5.688;2022-11-15T00:49:03;7.90;99.90
42245;DHT22;27912;51.828;5.688;2022-11-15T00:51:30;7.90;99.90
42245;DHT22;27912;51.828;5.688;2022-11-15T00:53:55;8.00;99.90
42245;DHT22;27912;51.828;5.688;2022-11-15T00:56:21;8.00;99.90
42245;DHT22;27912;51.828;5.688;2022-11-15T00:58:46;8.00;99.90
42245;DHT22;27912;51.828;5.688;2022-11-15T01:01:14;8.10;99.90
42245;DHT22;27912;51.828;5.688;2022-11-15T01:03:41;8.10;99.90
42245;DHT22;27912;51.828;5.688;2022-11-15T01:06:07;8.20;99.90
42245;DHT22;27912;51.828;5.688;2022-11-15T01:08:34;8.20;99.90
42245;DHT22;27912;51.828;5.688;2022-11-15T01:11:04;8.20;99.90
42245;DHT22;27912;51.828;5.688;2022-11-15T01:13:32;8.20;99.90
42245;DHT22;27912;51.828;5.688;2022-11-15T01:15:58;8.30;99.90
42245;DHT22;27912;51.828;5.688;2022-11-15T01:18:24;8.30;99.90
42245;DHT22;27912;51.828;5.688;2022-11-15T01:20:50;8.40;99.90
42245;DHT22;27912;51.828;5.688;2022-11-15T01:23:15;8.40;99.90
42245;DHT22;27912;51.828;5.688;2022-11-15T01:25:41;8.40;99.90
42245;DHT22;27912;51.828;5.688;2022-11-15T01:28:06;8.50;99.90
42245;DHT22;27912;51.828;5.688;2022-11-15T01:30:32;8.40;99.90
42245;DHT22;27912;51.828;5.688;2022-11-15T01:32:58;8.50;99.90
42245;DHT22;27912;51.828;5.688;2022-11-15T01:35:23;8.50;99.90
42245;DHT22;27912;51.828;5.688;2022-11-15T01:37:49;8.60;99.90
42245;DHT22;27912;51.828;5.688;2022-11-15T01:40:14;8.50;99.90
42245;DHT22;27912;51.828;5.688;2022-11-15T01:42:40;8.60;99.90
42245;DHT22;27912;51.828;5.688;2022-11-15T01:45:07;8.60;99.90
42245;DHT22;27912;51.828;5.688;2022-11-15T01:47:41;8.60;99.90
42245;DHT22;27912;51.828;5.688;2022-11-15T01:50:12;8.70;99.90
42245;DHT22;27912;51.828;5.688;2022-11-15T01:52:40;8.70;99.90
42245;DHT22;27912;51.828;5.688;2022-11-15T01:55:21;8.80;99.90
42245;DHT22;27912;51.828;5.688;2022-11-15T01:57:51;8.80;99.90
42245;DHT22;27912;51.828;5.688;2022-11-15T02:00:18;8.80;99.90
42245;DHT22;27912;51.828;5.688;2022-11-15T02:02:44;8.90;99.90
42245;DHT22;27912;51.828;5.688;2022-11-15T02:05:09;8.90;99.90
42245;DHT22;27912;51.828;5.688;2022-11-15T02:07:36;9.00;99.90
42245;DHT22;27912;51.828;5.688;2022-11-15T02:10:08;9.00;99.90
42245;DHT22;27912;51.828;5.688;2022-11-15T02:12:35;9.00;99.90
42245;DHT22;27912;51.828;5.688;2022-11-15T02:15:02;9.10;99.90
42245;DHT22;27912;51.828;5.688;2022-11-15T02:17:44;9.10;99.90
42245;DHT22;27912;51.828;5.688;2022-11-15T02:25:41;9.20;99.90
42245;DHT22;27912;51.828;5.688;2022-11-15T02:28:38;9.20;99.90
42245;DHT22;27912;51.828;5.688;2022-11-15T02:31:30;9.20;99.90
42245;DHT22;27912;51.828;5.688;2022-11-15T02:34:16;9.20;99.90
42245;DHT22;27912;51.828;5.688;2022-11-15T02:37:11;9.30;99.90
42245;DHT22;27912;51.828;5.688;2022-11-15T02:42:54;9.40;99.90
42245;DHT22;27912;51.828;5.688;2022-11-15T02:45:50;9.40;99.90
42245;DHT22;27912;51.828;5.688;2022-11-15T02:48:17;9.50;99.90
42245;DHT22;27912;51.828;5.688;2022-11-15T02:50:44;9.50;99.90
42245;DHT22;27912;51.828;5.688;2022-11-15T02:53:10;9.60;99.90
42245;DHT22;27912;51.828;5.688;2022-11-15T02:55:38;9.60;99.90
42245;DHT22;27912;51.828;5.688;2022-11-15T03:11:29;10.10;99.90
42245;DHT22;27912;51.828;5.688;2022-11-15T03:16:36;10.20;99.90
42245;DHT22;27912;51.828;5.688;2022-11-15T03:19:29;10.20;99.90
42245;DHT22;27912;51.828;5.688;2022-11-15T03:21:59;10.30;99.90
42245;DHT22;27912;51.828;5.688;2022-11-15T03:24:27;10.30;99.90
42245;DHT22;27912;51.828;5.688;2022-11-15T03:26:55;10.30;99.90
42245;DHT22;27912;51.828;5.688;2022-11-15T03:29:25;10.30;99.90
42245;DHT22;27912;51.828;5.688;2022-11-15T03:32:00;10.40;99.90
42245;DHT22;27912;51.828;5.688;2022-11-15T03:37:15;10.40;99.90
42245;DHT22;27912;51.828;5.688;2022-11-15T03:39:42;10.40;99.90
42245;DHT22;27912;51.828;5.688;2022-11-15T03:42:22;10.40;99.90
42245;DHT22;27912;51.828;5.688;2022-11-15T03:45:02;10.50;99.90
42245;DHT22;27912;51.828;5.688;2022-11-15T03:47:35;10.50;99.90
42245;DHT22;27912;51.828;5.688;2022-11-15T03:50:07;10.50;99.90
42245;DHT22;27912;51.828;5.688;2022-11-15T03:52:34;10.50;99.90
42245;DHT22;27912;51.828;5.688;2022-11-15T03:55:01;10.50;99.90
42245;DHT22;27912;51.828;5.688;2022-11-15T03:57:28;10.60;99.90
42245;DHT22;27912;51.828;5.688;2022-11-15T03:59:54;10.60;99.90
42245;DHT22;27912;51.828;5.688;2022-11-15T04:02:19;10.60;99.90
42245;DHT22;27912;51.828;5.688;2022-11-15T04:04:45;10.60;99.90
42245;DHT22;27912;51.828;5.688;2022-11-15T04:07:10;10.60;99.90
42245;DHT22;27912;51.828;5.688;2022-11-15T04:09:36;10.60;99.90
42245;DHT22;27912;51.828;5.688;2022-11-15T04:12:22;10.70;99.90
42245;DHT22;27912;51.828;5.688;2022-11-15T04:15:01;10.70;99.90
42245;DHT22;27912;51.828;5.688;2022-11-15T04:20:16;10.70;99.90
42245;DHT22;27912;51.828;5.688;2022-11-15T04:23:02;10.70;99.90
42245;DHT22;27912;51.828;5.688;2022-11-15T04:25:50;10.70;99.90
42245;DHT22;27912;51.828;5.688;2022-11-15T04:28:16;10.70;99.90
42245;DHT22;27912;51.828;5.688;2022-11-15T04:30:42;10.70;99.90
42245;DHT22;27912;51.828;5.688;2022-11-15T04:33:08;10.70;99.90
42245;DHT22;27912;51.828;5.688;2022-11-15T04:35:34;10.70;99.90
42245;DHT22;27912;51.828;5.688;2022-11-15T04:38:00;10.70;99.90
42245;DHT22;27912;51.828;5.688;2022-11-15T04:40:26;10.70;99.90
42245;DHT22;27912;51.828;5.688;2022-11-15T04:42:52;10.70;99.90
42245;DHT22;27912;51.828;5.688;2022-11-15T04:45:17;10.70;99.90
42245;DHT22;27912;51.828;5.688;2022-11-15T04:47:44;10.80;99.90
42245;DHT22;27912;51.828;5.688;2022-11-15T04:50:11;10.80;99.90
42245;DHT22;27912;51.828;5.688;2022-11-15T04:52:40;10.80;99.90
42245;DHT22;27912;51.828;5.688;2022-11-15T04:55:06;10.80;99.90
42245;DHT22;27912;51.828;5.688;2022-11-15T04:57:31;10.80;99.90
42245;DHT22;27912;51.828;5.688;2022-11-15T04:59:57;10.80;99.90
42245;DHT22;27912;51.828;5.688;2022-11-15T05:02:22;10.90;99.90
42245;DHT22;27912;51.828;5.688;2022-11-15T05:04:48;10.90;99.90
42245;DHT22;27912;51.828;5.688;2022-11-15T05:07:13;10.90;99.90
42245;DHT22;27912;51.828;5.688;2022-11-15T05:09:39;10.90;99.90
42245;DHT22;27912;51.828;5.688;2022-11-15T05:12:05;10.90;99.90
42245;DHT22;27912;51.828;5.688;2022-11-15T05:14:30;10.90;99.90
42245;DHT22;27912;51.828;5.688;2022-11-15T05:16:56;11.00;99.90
42245;DHT22;27912;51.828;5.688;2022-11-15T05:19:21;11.00;99.90
42245;DHT22;27912;51.828;5.688;2022-11-15T05:21:47;11.00;99.90
42245;DHT22;27912;51.828;5.688;2022-11-15T05:24:13;11.00;99.90
42245;DHT22;27912;51.828;5.688;2022-11-15T05:26:38;11.00;99.90
42245;DHT22;27912;51.828;5.688;2022-11-15T05:29:04;11.10;99.90
42245;DHT22;27912;51.828;5.688;2022-11-15T05:31:30;11.10;99.90
42245;DHT22;27912;51.828;5.688;2022-11-15T05:33:56;11.10;99.90
42245;DHT22;27912;51.828;5.688;2022-11-15T05:36:42;11.10;99.90
42245;DHT22;27912;51.828;5.688;2022-11-15T05:39:08;11.10;99.90
42245;DHT22;27912;51.828;5.688;2022-11-15T05:41:38;11.10;99.90
42245;DHT22;27912;51.828;5.688;2022-11-15T05:44:07;11.10;99.90
42245;DHT22;27912;51.828;5.688;2022-11-15T05:46:35;11.10;99.90
42245;DHT22;27912;51.828;5.688;2022-11-15T05:49:02;11.10;99.90
42245;DHT22;27912;51.828;5.688;2022-11-15T05:51:30;11.10;99.90
42245;DHT22;27912;51.828;5.688;2022-11-15T05:53:57;11.10;99.90
42245;DHT22;27912;51.828;5.688;2022-11-15T05:56:23;11.10;99.90
42245;DHT22;27912;51.828;5.688;2022-11-15T05:58:49;11.10;99.90
42245;DHT22;27912;51.828;5.688;2022-11-15T06:01:15;11.10;99.90
42245;DHT22;27912;51.828;5.688;2022-11-15T06:03:40;11.10;99.90
42245;DHT22;27912;51.828;5.688;2022-11-15T06:06:06;11.10;99.90
42245;DHT22;27912;51.828;5.688;2022-11-15T06:08:32;11.10;99.90
42245;DHT22;27912;51.828;5.688;2022-11-15T06:11:03;11.20;99.90
42245;DHT22;27912;51.828;5.688;2022-11-15T06:13:29;11.20;99.90
42245;DHT22;27912;51.828;5.688;2022-11-15T06:15:55;11.20;99.90
42245;DHT22;27912;51.828;5.688;2022-11-15T06:18:22;11.20;99.90
42245;DHT22;27912;51.828;5.688;2022-11-15T06:20:47;11.20;99.90
42245;DHT22;27912;51.828;5.688;2022-11-15T06:23:13;11.20;99.90
42245;DHT22;27912;51.828;5.688;2022-11-15T06:25:39;11.20;99.90
42245;DHT22;27912;51.828;5.688;2022-11-15T06:28:04;11.20;99.90
42245;DHT22;27912;51.828;5.688;2022-11-15T06:30:30;11.30;99.90
42245;DHT22;27912;51.828;5.688;2022-11-15T06:33:00;11.20;99.90
42245;DHT22;27912;51.828;5.688;2022-11-15T06:35:26;11.30;99.90
42245;DHT22;27912;51.828;5.688;2022-11-15T06:37:51;11.20;99.90
42245;DHT22;27912;51.828;5.688;2022-11-15T06:40:17;11.30;99.90
42245;DHT22;27912;51.828;5.688;2022-11-15T06:42:43;11.30;99.90
42245;DHT22;27912;51.828;5.688;2022-11-15T06:45:08;11.20;99.90
42245;DHT22;27912;51.828;5.688;2022-11-15T06:47:34;11.20;99.90
42245;DHT22;27912;51.828;5.688;2022-11-15T06:49:59;11.20;99.90
42245;DHT22;27912;51.828;5.688;2022-11-15T06:52:25;11.30;99.90
42245;DHT22;27912;51.828;5.688;2022-11-15T06:54:51;11.30;99.90
42245;DHT22;27912;51.828;5.688;2022-11-15T06:57:16;11.30;99.90
42245;DHT22;27912;51.828;5.688;2022-11-15T06:59:42;11.30;99.90
42245;DHT22;27912;51.828;5.688;2022-11-15T07:02:12;11.30;99.90
42245;DHT22;27912;51.828;5.688;2022-11-15T07:04:38;11.20;99.90
42245;DHT22;27912;51.828;5.688;2022-11-15T07:07:04;11.20;99.90
42245;DHT22;27912;51.828;5.688;2022-11-15T07:09:30;11.30;99.90
42245;DHT22;27912;51.828;5.688;2022-11-15T07:11:55;11.20;99.90
42245;DHT22;27912;51.828;5.688;2022-11-15T07:14:21;11.20;99.90
42245;DHT22;27912;51.828;5.688;2022-11-15T07:16:46;11.20;99.90
42245;DHT22;27912;51.828;5.688;2022-11-15T07:19:12;11.20;99.90
42245;DHT22;27912;51.828;5.688;2022-11-15T07:21:38;11.20;99.90
42245;DHT22;27912;51.828;5.688;2022-11-15T07:24:04;11.20;99.90
42245;DHT22;27912;51.828;5.688;2022-11-15T07:26:30;11.20;99.90
42245;DHT22;27912;51.828;5.688;2022-11-15T07:28:55;11.20;99.90
42245;DHT22;27912;51.828;5.688;2022-11-15T07:31:21;11.20;99.90
42245;DHT22;27912;51.828;5.688;2022-11-15T07:33:47;11.20;99.90
42245;DHT22;27912;51.828;5.688;2022-11-15T07:36:13;11.20;99.90
42245;DHT22;27912;51.828;5.688;2022-11-15T07:38:38;11.20;99.90
42245;DHT22;27912;51.828;5.688;2022-11-15T07:41:05;11.20;99.90
42245;DHT22;27912;51.828;5.688;2022-11-15T07:43:32;11.20;99.90
42245;DHT22;27912;51.828;5.688;2022-11-15T07:46:07;11.20;99.90
42245;DHT22;27912;51.828;5.688;2022-11-15T07:48:35;11.30;99.90
42245;DHT22;27912;51.828;5.688;2022-11-15T07:51:01;11.20;99.90
42245;DHT22;27912;51.828;5.688;2022-11-15T07:53:27;11.20;99.90
42245;DHT22;27912;51.828;5.688;2022-11-15T07:55:52;11.20;99.90
42245;DHT22;27912;51.828;5.688;2022-11-15T07:58:19;11.30;99.90
42245;DHT22;27912;51.828;5.688;2022-11-15T08:00:44;11.30;99.90
42245;DHT22;27912;51.828;5.688;2022-11-15T08:03:13;11.30;99.90
42245;DHT22;27912;51.828;5.688;2022-11-15T08:05:40;11.30;99.90
42245;DHT22;27912;51.828;5.688;2022-11-15T08:08:07;11.30;99.90
42245;DHT22;27912;51.828;5.688;2022-11-15T08:10:33;11.30;99.90
42245;DHT22;27912;51.828;5.688;2022-11-15T08:13:08;11.30;99.90
42245;DHT22;27912;51.828;5.688;2022-11-15T08:15:35;11.40;99.90
42245;DHT22;27912;51.828;5.688;2022-11-15T08:18:03;11.40;99.90
42245;DHT22;27912;51.828;5.688;2022-11-15T08:20:29;11.40;99.90
42245;DHT22;27912;51.828;5.688;2022-11-15T08:22:59;11.40;99.90
42245;DHT22;27912;51.828;5.688;2022-11-15T08:25:26;11.40;99.90
42245;DHT22;27912;51.828;5.688;2022-11-15T08:27:53;11.30;99.90
42245;DHT22;27912;51.828;5.688;2022-11-15T08:30:19;11.30;99.90
42245;DHT22;27912;51.828;5.688;2022-11-15T08:32:44;11.30;99.90
42245;DHT22;27912;51.828;5.688;2022-11-15T08:35:10;11.30;99.90
42245;DHT22;27912;51.828;5.688;2022-11-15T08:37:36;11.30;99.90
42245;DHT22;27912;51.828;5.688;2022-11-15T08:40:01;11.30;99.90
42245;DHT22;27912;51.828;5.688;2022-11-15T08:42:27;11.30;99.90
42245;DHT22;27912;51.828;5.688;2022-11-15T08:44:52;11.30;99.90
42245;DHT22;27912;51.828;5.688;2022-11-15T08:47:18;11.30;99.90
42245;DHT22;27912;51.828;5.688;2022-11-15T08:49:44;11.40;99.90
42245;DHT22;27912;51.828;5.688;2022-11-15T12:31:59;12.00;99.90
42245;DHT22;27912;51.828;5.688;2022-11-15T12:34:40;12.90;99.90
42245;DHT22;27912;51.828;5.688;2022-11-15T12:37:32;12.90;99.90
42245;DHT22;27912;51.828;5.688;2022-11-15T12:41:11;12.90;99.90
42245;DHT22;27912;51.828;5.688;2022-11-15T12:45:44;12.90;99.90
42245;DHT22;27912;51.828;5.688;2022-11-15T12:50:57;12.80;99.90
42245;DHT22;27912;51.828;5.688;2022-11-15T13:01:09;12.80;99.90
42245;DHT22;27912;51.828;5.688;2022-11-15T13:03:35;12.80;99.90
42245;DHT22;27912;51.828;5.688;2022-11-15T13:06:41;12.80;99.90
42245;DHT22;27912;51.828;5.688;2022-11-15T13:12:11;12.80;99.90
42245;DHT22;27912;51.828;5.688;2022-11-15T13:15:51;12.70;99.90
42245;DHT22;27912;51.828;5.688;2022-11-15T13:17:51;12.70;99.90
42245;DHT22;27912;51.828;5.688;2022-11-15T13:20:23;12.60;99.90
42245;DHT22;27912;51.828;5.688;2022-11-15T13:23:07;12.60;99.90
42245;DHT22;27912;51.828;5.688;2022-11-15T13:28:51;12.60;99.90
42245;DHT22;27912;51.828;5.688;2022-11-15T13:31:29;12.60;99.90
42245;DHT22;27912;51.828;5.688;2022-11-15T13:33:59;12.50;99.90
42245;DHT22;27912;51.828;5.688;2022-11-15T13:36:32;12.50;99.90
42245;DHT22;27912;51.828;5.688;2022-11-15T13:41:32;12.50;99.90
42245;DHT22;27912;51.828;5.688;2022-11-15T13:44:00;12.50;99.90
42245;DHT22;27912;51.828;5.688;2022-11-15T13:46:28;12.50;99.90
42245;DHT22;27912;51.828;5.688;2022-11-15T13:51:49;12.40;99.90
42245;DHT22;27912;51.828;5.688;2022-11-15T13:55:22;12.40;99.90
42245;DHT22;27912;51.828;5.688;2022-11-15T13:57:35;12.40;99.90
42245;DHT22;27912;51.828;5.688;2022-11-15T14:00:22;12.40;99.90
42245;DHT22;27912;51.828;5.688;2022-11-15T14:02:49;12.40;99.90
42245;DHT22;27912;51.828;5.688;2022-11-15T14:05:18;12.30;99.90
42245;DHT22;27912;51.828;5.688;2022-11-15T14:07:55;12.40;99.90
42245;DHT22;27912;51.828;5.688;2022-11-15T14:10:35;12.40;99.90
42245;DHT22;27912;51.828;5.688;2022-11-15T14:13:03;12.40;99.90
42245;DHT22;27912;51.828;5.688;2022-11-15T14:15:36;12.40;99.90
42245;DHT22;27912;51.828;5.688;2022-11-15T14:18:03;12.50;99.90
42245;DHT22;27912;51.828;5.688;2022-11-15T14:23:04;12.50;99.90
42245;DHT22;27912;51.828;5.688;2022-11-15T14:25:34;12.50;99.90
42245;DHT22;27912;51.828;5.688;2022-11-15T14:28:30;12.50;99.90
42245;DHT22;27912;51.828;5.688;2022-11-15T14:30:59;12.50;99.90
42245;DHT22;27912;51.828;5.688;2022-11-15T14:33:34;12.50;99.90
42245;DHT22;27912;51.828;5.688;2022-11-15T14:36:13;12.50;99.90
42245;DHT22;27912;51.828;5.688;2022-11-15T14:38:40;12.50;99.90
42245;DHT22;27912;51.828;5.688;2022-11-15T14:41:18;12.50;99.90
42245;DHT22;27912;51.828;5.688;2022-11-15T14:43:44;12.50;99.90
42245;DHT22;27912;51.828;5.688;2022-11-15T14:46:10;12.50;99.90
42245;DHT22;27912;51.828;5.688;2022-11-15T14:48:35;12.50;99.90
42245;DHT22;27912;51.828;5.688;2022-11-15T14:51:01;12.50;99.90
42245;DHT22;27912;51.828;5.688;2022-11-15T14:53:27;12.50;99.90
42245;DHT22;27912;51.828;5.688;2022-11-15T14:55:52;12.50;99.90
42245;DHT22;27912;51.828;5.688;2022-11-15T14:58:18;12.50;99.90
42245;DHT22;27912;51.828;5.688;2022-11-15T15:00:43;12.50;99.90
42245;DHT22;27912;51.828;5.688;2022-11-15T15:03:10;12.50;99.90
42245;DHT22;27912;51.828;5.688;2022-11-15T15:05:38;12.50;99.90
42245;DHT22;27912;51.828;5.688;2022-11-15T15:08:05;12.50;99.90
42245;DHT22;27912;51.828;5.688;2022-11-15T15:10:40;12.50;99.90
42245;DHT22;27912;51.828;5.688;2022-11-15T15:13:08;12.50;99.90
42245;DHT22;27912;51.828;5.688;2022-11-15T15:15:37;12.50;99.90
42245;DHT22;27912;51.828;5.688;2022-11-15T15:18:04;12.40;99.90
42245;DHT22;27912;51.828;5.688;2022-11-15T15:20:31;12.40;99.90
42245;DHT22;27912;51.828;5.688;2022-11-15T15:22:58;12.40;99.90
42245;DHT22;27912;51.828;5.688;2022-11-15T15:25:28;12.40;99.90
42245;DHT22;27912;51.828;5.688;2022-11-15T15:27:54;12.40;99.90
42245;DHT22;27912;51.828;5.688;2022-11-15T15:30:21;12.40;99.90
42245;DHT22;27912;51.828;5.688;2022-11-15T15:32:47;12.40;99.90
42245;DHT22;27912;51.828;5.688;2022-11-15T15:35:14;12.30;99.90
42245;DHT22;27912;51.828;5.688;2022-11-15T15:37:40;12.30;99.90
42245;DHT22;27912;51.828;5.688;2022-11-15T15:42:40;12.30;99.90
42245;DHT22;27912;51.828;5.688;2022-11-15T15:45:07;12.30;99.90
42245;DHT22;27912;51.828;5.688;2022-11-15T15:47:33;12.30;99.90
42245;DHT22;27912;51.828;5.688;2022-11-15T15:49:58;12.30;99.90
42245;DHT22;27912;51.828;5.688;2022-11-15T15:52:24;12.30;99.90
42245;DHT22;27912;51.828;5.688;2022-11-15T15:54:50;12.30;99.90
42245;DHT22;27912;51.828;5.688;2022-11-15T15:57:15;12.30;99.90
42245;DHT22;27912;51.828;5.688;2022-11-15T15:59:41;12.20;99.90
42245;DHT22;27912;51.828;5.688;2022-11-15T16:02:11;12.20;99.90
42245;DHT22;27912;51.828;5.688;2022-11-15T16:04:37;12.20;99.90
42245;DHT22;27912;51.828;5.688;2022-11-15T16:07:03;12.20;99.90
42245;DHT22;27912;51.828;5.688;2022-11-15T16:09:29;12.20;99.90
42245;DHT22;27912;51.828;5.688;2022-11-15T16:12:13;12.20;99.90
42245;DHT22;27912;51.828;5.688;2022-11-15T16:14:42;12.20;99.90
42245;DHT22;27912;51.828;5.688;2022-11-15T16:17:18;12.20;99.90
42245;DHT22;27912;51.828;5.688;2022-11-15T16:19:45;12.20;99.90
42245;DHT22;27912;51.828;5.688;2022-11-15T16:22:10;12.20;99.90
42245;DHT22;27912;51.828;5.688;2022-11-15T16:24:36;12.20;99.90
42245;DHT22;27912;51.828;5.688;2022-11-15T16:27:02;12.20;99.90
42245;DHT22;27912;51.828;5.688;2022-11-15T16:29:27;12.20;99.90
42245;DHT22;27912;51.828;5.688;2022-11-15T16:31:53;12.30;99.90
42245;DHT22;27912;51.828;5.688;2022-11-15T16:34:19;12.30;99.90
42245;DHT22;27912;51.828;5.688;2022-11-15T16:36:44;12.30;99.90
42245;DHT22;27912;51.828;5.688;2022-11-15T16:39:13;12.30;99.90
42245;DHT22;27912;51.828;5.688;2022-11-15T16:41:40;12.30;99.90
42245;DHT22;27912;51.828;5.688;2022-11-15T16:44:08;12.30;99.90
42245;DHT22;27912;51.828;5.688;2022-11-15T16:46:34;12.30;99.90
42245;DHT22;27912;51.828;5.688;2022-11-15T16:48:59;12.40;99.90
42245;DHT22;27912;51.828;5.688;2022-11-15T16:51:25;12.40;99.90
42245;DHT22;27912;51.828;5.688;2022-11-15T16:53:50;12.30;99.90
42245;DHT22;27912;51.828;5.688;2022-11-15T16:56:26;12.40;99.90
42245;DHT22;27912;51.828;5.688;2022-11-15T16:58:53;12.40;99.90
42245;DHT22;27912;51.828;5.688;2022-11-15T17:01:35;12.40;99.90
42245;DHT22;27912;51.828;5.688;2022-11-15T17:04:03;12.50;99.90
42245;DHT22;27912;51.828;5.688;2022-11-15T17:06:38;12.50;99.90
42245;DHT22;27912;51.828;5.688;2022-11-15T17:09:04;12.40;99.90
42245;DHT22;27912;51.828;5.688;2022-11-15T17:11:29;12.40;99.90
42245;DHT22;27912;51.828;5.688;2022-11-15T17:13:58;12.30;99.90
42245;DHT22;27912;51.828;5.688;2022-11-15T17:16:25;12.30;99.90
42245;DHT22;27912;51.828;5.688;2022-11-15T17:18:51;12.30;99.90
42245;DHT22;27912;51.828;5.688;2022-11-15T17:21:18;12.30;99.90
42245;DHT22;27912;51.828;5.688;2022-11-15T17:23:45;12.20;99.90
42245;DHT22;27912;51.828;5.688;2022-11-15T17:26:12;12.20;99.90
42245;DHT22;27912;51.828;5.688;2022-11-15T17:28:39;12.20;99.90
42245;DHT22;27912;51.828;5.688;2022-11-15T17:31:09;12.10;99.90
42245;DHT22;27912;51.828;5.688;2022-11-15T17:33:35;12.10;99.90
42245;DHT22;27912;51.828;5.688;2022-11-15T17:36:04;12.00;99.90
42245;DHT22;27912;51.828;5.688;2022-11-15T17:38:30;12.00;99.90
42245;DHT22;27912;51.828;5.688;2022-11-15T17:41:05;11.90;99.90
42245;DHT22;27912;51.828;5.688;2022-11-15T17:43:32;11.90;99.90
42245;DHT22;27912;51.828;5.688;2022-11-15T17:46:01;11.90;99.90
42245;DHT22;27912;51.828;5.688;2022-11-15T17:48:29;11.80;99.90
42245;DHT22;27912;51.828;5.688;2022-11-15T17:51:03;11.80;99.90
42245;DHT22;27912;51.828;5.688;2022-11-15T17:53:34;11.80;99.90
42245;DHT22;27912;51.828;5.688;2022-11-15T17:56:04;11.80;99.90
42245;DHT22;27912;51.828;5.688;2022-11-15T17:58:31;11.80;99.90
42245;DHT22;27912;51.828;5.688;2022-11-15T18:01:08;11.80;99.90
42245;DHT22;27912;51.828;5.688;2022-11-15T18:03:37;11.80;99.90
42245;DHT22;27912;51.828;5.688;2022-11-15T18:06:04;11.70;99.90
42245;DHT22;27912;51.828;5.688;2022-11-15T18:08:31;11.70;99.90
42245;DHT22;27912;51.828;5.688;2022-11-15T18:13:41;11.70;99.90
42245;DHT22;27912;51.828;5.688;2022-11-15T18:16:13;11.60;99.90
42245;DHT22;27912;51.828;5.688;2022-11-15T18:18:39;11.60;99.90
42245;DHT22;27912;51.828;5.688;2022-11-15T18:21:06;11.60;99.90
42245;DHT22;27912;51.828;5.688;2022-11-15T18:23:32;11.60;99.90
42245;DHT22;27912;51.828;5.688;2022-11-15T18:25:59;11.60;99.90
42245;DHT22;27912;51.828;5.688;2022-11-15T18:28:29;11.50;99.90
42245;DHT22;27912;51.828;5.688;2022-11-15T18:30:56;11.60;99.90
42245;DHT22;27912;51.828;5.688;2022-11-15T18:33:29;11.50;99.90
42245;DHT22;27912;51.828;5.688;2022-11-15T18:36:02;11.50;99.90
42245;DHT22;27912;51.828;5.688;2022-11-15T18:38:28;11.50;99.90
42245;DHT22;27912;51.828;5.688;2022-11-15T18:41:05;11.50;99.90
42245;DHT22;27912;51.828;5.688;2022-11-15T18:43:32;11.50;99.90
42245;DHT22;27912;51.828;5.688;2022-11-15T18:46:03;11.50;99.90
42245;DHT22;27912;51.828;5.688;2022-11-15T18:48:31;11.40;99.90
42245;DHT22;27912;51.828;5.688;2022-11-15T18:51:03;11.40;99.90
42245;DHT22;27912;51.828;5.688;2022-11-15T18:53:29;11.40;99.90
42245;DHT22;27912;51.828;5.688;2022-11-15T18:56:17;11.40;99.90
42245;DHT22;27912;51.828;5.688;2022-11-15T18:58:48;11.40;99.90
42245;DHT22;27912;51.828;5.688;2022-11-15T19:01:19;11.40;99.90
42245;DHT22;27912;51.828;5.688;2022-11-15T19:03:47;11.40;99.90
42245;DHT22;27912;51.828;5.688;2022-11-15T19:06:27;11.40;99.90
42245;DHT22;27912;51.828;5.688;2022-11-15T19:08:55;11.40;99.90
42245;DHT22;27912;51.828;5.688;2022-11-15T19:11:26;11.40;99.90
42245;DHT22;27912;51.828;5.688;2022-11-15T19:14:04;11.40;99.90
42245;DHT22;27912;51.828;5.688;2022-11-15T19:16:32;11.30;99.90
42245;DHT22;27912;51.828;5.688;2022-11-15T19:19:01;11.40;99.90
42245;DHT22;27912;51.828;5.688;2022-11-15T19:21:28;11.40;99.90
42245;DHT22;27912;51.828;5.688;2022-11-15T19:23:55;11.40;99.90
42245;DHT22;27912;51.828;5.688;2022-11-15T19:26:22;11.40;99.90
42245;DHT22;27912;51.828;5.688;2022-11-15T19:28:58;11.40;99.90
42245;DHT22;27912;51.828;5.688;2022-11-15T19:31:26;11.40;99.90
42245;DHT22;27912;51.828;5.688;2022-11-15T19:33:53;11.40;99.90
42245;DHT22;27912;51.828;5.688;2022-11-15T19:36:27;11.40;99.90
42245;DHT22;27912;51.828;5.688;2022-11-15T19:38:54;11.50;99.90
42245;DHT22;27912;51.828;5.688;2022-11-15T19:41:21;11.50;99.90
42245;DHT22;27912;51.828;5.688;2022-11-15T19:43:48;11.50;99.90
42245;DHT22;27912;51.828;5.688;2022-11-15T19:46:16;11.50;99.90
42245;DHT22;27912;51.828;5.688;2022-11-15T19:48:42;11.50;99.90
42245;DHT22;27912;51.828;5.688;2022-11-15T19:51:11;11.50;99.90
42245;DHT22;27912;51.828;5.688;2022-11-15T19:53:38;11.60;99.90
42245;DHT22;27912;51.828;5.688;2022-11-15T19:56:12;11.50;99.90
42245;DHT22;27912;51.828;5.688;2022-11-15T19:58:38;11.60;99.90
42245;DHT22;27912;51.828;5.688;2022-11-15T20:01:12;11.60;99.90
42245;DHT22;27912;51.828;5.688;2022-11-15T20:03:38;11.60;99.90
42245;DHT22;27912;51.828;5.688;2022-11-15T20:06:08;11.60;99.90
42245;DHT22;27912;51.828;5.688;2022-11-15T20:08:34;11.50;99.90
42245;DHT22;27912;51.828;5.688;2022-11-15T20:11:01;11.60;99.90
42245;DHT22;27912;51.828;5.688;2022-11-15T20:13:27;11.60;99.90
42245;DHT22;27912;51.828;5.688;2022-11-15T20:15:53;11.60;99.90
42245;DHT22;27912;51.828;5.688;2022-11-15T20:18:20;11.60;99.90
42245;DHT22;27912;51.828;5.688;2022-11-15T20:20:46;11.60;99.90
42245;DHT22;27912;51.828;5.688;2022-11-15T20:23:12;11.50;99.90
42245;DHT22;27912;51.828;5.688;2022-11-15T20:25:38;11.60;99.90